createdAt,value
2018-11-23T00:04:28.054Z,37.77
2018-11-23T00:06:56.199Z,37.09
2018-11-23T00:09:24.787Z,37.24
2018-11-23T00:11:52.749Z,37.26
2018-11-23T00:14:21.191Z,36.38
2018-11-23T00:16:49.197Z,35.57
2018-11-23T00:19:17.566Z,36.64
2018-11-23T00:21:44.954Z,37.68
2018-11-23T00:24:12.701Z,37.45
2018-11-23T00:27:44.814Z,38.01
2018-11-23T00:30:17.633Z,37.93
2018-11-23T00:32:45.770Z,36.81
2018-11-23T00:35:14.574Z,37.15
2018-11-23T00:37:43.053Z,37.39
2018-11-23T00:40:12.599Z,37.18
2018-11-23T00:42:40.855Z,37.06
2018-11-23T00:45:09.775Z,37.09
2018-11-23T00:47:37.819Z,37.64
2018-11-23T00:50:08.586Z,37.55
2018-11-23T00:52:36.575Z,38.20
2018-11-23T00:55:04.590Z,37.91
2018-11-23T00:57:32.474Z,37.67
2018-11-23T01:00:00.303Z,38.01
2018-11-23T01:02:28.058Z,37.76
2018-11-23T01:04:56.020Z,38.17
2018-11-23T01:07:23.946Z,37.66
2018-11-23T01:09:51.850Z,37.04
2018-11-23T01:12:19.693Z,37.65
2018-11-23T01:14:47.742Z,36.64
2018-11-23T01:17:15.699Z,36.73
2018-11-23T01:19:43.603Z,35.69
2018-11-23T01:22:11.663Z,36.21
2018-11-23T01:24:39.492Z,37.47
2018-11-23T01:27:07.303Z,36.97
2018-11-23T01:29:35.043Z,37.81
2018-11-23T01:32:02.875Z,37.42
2018-11-23T01:34:30.661Z,38.05
2018-11-23T01:36:58.639Z,37.41
2018-11-23T01:39:26.501Z,37.85
2018-11-23T01:41:54.499Z,38.13
2018-11-23T01:44:22.299Z,37.69
2018-11-23T01:46:50.012Z,37.71
2018-11-23T01:49:17.442Z,37.55
2018-11-23T01:51:45.209Z,37.39
2018-11-23T01:54:12.916Z,37.11
2018-11-23T01:56:40.670Z,37.42
2018-11-23T01:59:08.725Z,36.85
2018-11-23T02:01:36.583Z,36.97
2018-11-23T02:04:04.478Z,36.49
2018-11-23T02:06:32.392Z,35.50
2018-11-23T02:09:00.063Z,36.77
2018-11-23T02:12:38.206Z,37.63
2018-11-23T02:15:11.453Z,37.14
2018-11-23T02:17:39.200Z,37.31
2018-11-23T02:20:09.211Z,36.57
2018-11-23T02:22:36.994Z,36.99
2018-11-23T02:25:05.185Z,36.85
2018-11-23T02:27:32.414Z,36.27
2018-11-23T02:30:00.063Z,37.39
2018-11-23T02:32:27.976Z,36.92
2018-11-23T02:34:55.659Z,37.43
2018-11-23T02:37:23.368Z,37.71
2018-11-23T02:39:51.300Z,38.05
2018-11-23T02:42:18.983Z,37.70
2018-11-23T02:44:46.659Z,38.13
2018-11-23T02:47:14.303Z,37.50
2018-11-23T02:49:41.991Z,37.75
2018-11-23T02:52:09.307Z,38.09
2018-11-23T02:54:37.003Z,37.63
2018-11-23T02:57:05.307Z,37.74
2018-11-23T02:59:32.990Z,37.30
2018-11-23T03:02:00.783Z,37.06
2018-11-23T03:04:28.607Z,36.41
2018-11-23T03:06:56.455Z,36.35
2018-11-23T03:09:24.186Z,36.19
2018-11-23T03:11:51.760Z,36.18
2018-11-23T03:14:19.596Z,37.21
2018-11-23T03:16:47.312Z,37.52
2018-11-23T03:19:14.986Z,37.59
2018-11-23T03:21:42.673Z,37.63
2018-11-23T03:24:10.584Z,37.48
2018-11-23T03:26:38.304Z,37.82
2018-11-23T03:29:06.003Z,37.90
2018-11-23T03:31:33.671Z,37.77
2018-11-23T03:34:01.324Z,38.38
2018-11-23T03:36:29.035Z,37.82
2018-11-23T03:38:56.310Z,37.55
2018-11-23T03:41:23.967Z,37.65
2018-11-23T03:43:51.764Z,37.60
2018-11-23T03:46:19.559Z,37.26
2018-11-23T03:48:47.238Z,37.13
2018-11-23T03:51:14.763Z,36.96
2018-11-23T03:53:42.562Z,36.53
2018-11-23T03:56:10.315Z,36.05
2018-11-23T03:58:37.955Z,37.32
2018-11-23T04:01:06.070Z,36.92
2018-11-23T04:03:33.763Z,37.85
2018-11-23T04:06:01.554Z,37.71
2018-11-23T04:08:29.221Z,37.33
2018-11-23T04:10:56.795Z,38.08
2018-11-23T04:13:23.981Z,37.65
2018-11-23T04:15:51.680Z,37.93
2018-11-23T04:18:19.563Z,37.96
2018-11-23T04:20:51.938Z,37.54
2018-11-23T04:23:19.649Z,37.77
2018-11-23T04:25:47.311Z,37.68
2018-11-23T04:28:15.175Z,37.83
2018-11-23T04:30:42.768Z,37.05
2018-11-23T04:33:10.600Z,36.26
2018-11-23T04:35:38.438Z,36.32
2018-11-23T04:38:06.071Z,36.35
2018-11-23T04:40:33.930Z,36.66
2018-11-23T04:43:01.762Z,37.21
2018-11-23T04:45:29.603Z,36.99
2018-11-23T04:47:57.314Z,37.86
2018-11-23T04:50:25.046Z,37.46
2018-11-23T04:52:52.323Z,37.47
2018-11-23T04:55:20.044Z,37.55
2018-11-23T04:57:53.609Z,37.81
2018-11-23T05:00:16.821Z,37.53
2018-11-23T05:02:45.508Z,37.95
2018-11-23T05:05:13.574Z,37.86
2018-11-23T05:07:42.472Z,38.51
2018-11-23T05:10:12.027Z,37.35
2018-11-23T05:12:39.323Z,36.78
2018-11-23T05:15:08.341Z,37.09
2018-11-23T05:17:36.217Z,36.91
2018-11-23T05:20:04.586Z,36.26
2018-11-23T05:22:32.247Z,36.28
2018-11-23T05:24:59.772Z,38.00
2018-11-23T05:27:27.571Z,37.57
2018-11-23T05:29:55.210Z,37.23
2018-11-23T05:32:22.871Z,37.18
2018-11-23T05:34:50.054Z,38.07
2018-11-23T05:37:17.318Z,37.90
2018-11-23T05:39:44.971Z,38.01
2018-11-23T05:42:12.712Z,38.10
2018-11-23T05:44:40.530Z,37.95
2018-11-23T05:47:08.315Z,38.14
2018-11-23T05:49:35.969Z,38.19
2018-11-23T05:52:03.696Z,37.28
2018-11-23T05:54:31.326Z,37.70
2018-11-23T05:56:59.008Z,37.81
2018-11-23T05:59:26.680Z,37.35
2018-11-23T06:01:54.496Z,36.29
2018-11-23T06:04:22.231Z,36.70
2018-11-23T06:06:49.895Z,35.95
2018-11-23T06:09:17.637Z,37.57
2018-11-23T06:11:46.201Z,37.85
2018-11-23T06:14:13.851Z,37.51
2018-11-23T06:16:41.695Z,38.42
2018-11-23T06:19:09.019Z,38.54
2018-11-23T06:21:36.954Z,38.18
2018-11-23T06:24:05.189Z,37.83
2018-11-23T06:26:33.208Z,38.65
2018-11-23T06:29:00.796Z,38.32
2018-11-23T06:31:28.025Z,38.25
2018-11-23T06:33:55.764Z,38.31
2018-11-23T06:36:23.617Z,38.15
2018-11-23T06:39:12.139Z,37.00
2018-11-23T06:41:39.767Z,37.34
2018-11-23T06:44:07.712Z,37.43
2018-11-23T06:46:35.542Z,37.23
2018-11-23T06:49:03.219Z,38.03
2018-11-23T06:51:31.426Z,38.17
2018-11-23T06:53:59.465Z,37.83
2018-11-23T06:56:27.292Z,37.68
2018-11-23T06:58:55.075Z,38.37
2018-11-23T07:01:22.426Z,38.31
2018-11-23T07:03:50.387Z,38.29
2018-11-23T07:06:18.518Z,38.02
2018-11-23T07:08:52.204Z,38.48
2018-11-23T07:11:13.998Z,38.25
2018-11-23T07:13:41.875Z,38.16
2018-11-23T07:16:09.358Z,37.94
2018-11-23T07:18:37.063Z,37.32
2018-11-23T07:21:05.224Z,36.86
2018-11-23T07:23:33.021Z,37.04
2018-11-23T07:26:00.766Z,37.06
2018-11-23T07:28:28.761Z,36.69
2018-11-23T07:31:02.102Z,37.99
2018-11-23T07:33:24.590Z,37.90
2018-11-23T07:35:52.406Z,38.16
2018-11-23T07:38:19.785Z,38.31
2018-11-23T07:41:05.432Z,38.59
2018-11-23T07:43:33.219Z,38.46
2018-11-23T07:46:00.986Z,38.04
2018-11-23T07:48:28.675Z,38.42
2018-11-23T07:50:56.518Z,38.48
2018-11-23T07:53:24.188Z,38.12
2018-11-23T07:55:52.352Z,37.48
2018-11-23T07:58:20.007Z,37.56
2018-11-23T08:00:47.792Z,37.17
2018-11-23T08:03:15.590Z,37.08
2018-11-23T08:05:43.475Z,37.16
2018-11-23T08:08:11.203Z,36.74
2018-11-23T08:10:38.354Z,37.19
2018-11-23T08:13:06.070Z,38.00
2018-11-23T08:15:34.033Z,37.85
2018-11-23T08:18:02.385Z,37.86
2018-11-23T08:20:30.064Z,38.22
2018-11-23T08:22:57.650Z,38.63
2018-11-23T08:25:25.968Z,37.69
2018-11-23T08:27:54.875Z,38.42
2018-11-23T08:30:25.027Z,38.00
2018-11-23T08:32:52.587Z,37.61
2018-11-23T08:35:20.503Z,37.38
2018-11-23T08:37:48.205Z,38.03
2018-11-23T08:40:22.647Z,36.57
2018-11-23T08:42:51.023Z,36.59
2018-11-23T08:45:19.966Z,36.16
2018-11-23T08:47:47.684Z,37.17
2018-11-23T08:50:18.026Z,36.41
2018-11-23T08:52:45.314Z,36.43
2018-11-23T08:55:13.765Z,36.41
2018-11-23T08:57:41.827Z,36.86
2018-11-23T09:00:14.588Z,37.07
2018-11-23T09:02:43.051Z,37.10
2018-11-23T09:05:10.313Z,36.84
2018-11-23T09:07:38.078Z,37.27
2018-11-23T09:10:09.023Z,36.84
2018-11-23T09:12:36.909Z,36.51
2018-11-23T09:15:05.578Z,36.23
2018-11-23T09:17:33.294Z,36.50
2018-11-23T09:20:01.011Z,36.41
2018-11-23T09:22:28.951Z,35.62
2018-11-23T09:24:56.683Z,36.12
2018-11-23T09:27:24.538Z,35.78
2018-11-23T09:29:52.231Z,36.16
2018-11-23T09:32:20.035Z,36.20
2018-11-23T09:34:48.015Z,36.62
2018-11-23T09:37:15.943Z,36.55
2018-11-23T09:39:43.298Z,36.19
2018-11-23T09:42:11.228Z,36.32
2018-11-23T09:44:39.015Z,36.88
2018-11-23T09:47:10.172Z,36.87
2018-11-23T09:49:34.774Z,36.29
2018-11-23T09:52:02.591Z,37.00
2018-11-23T09:54:30.366Z,37.03
2018-11-23T09:56:57.598Z,37.43
2018-11-23T09:59:25.591Z,36.90
2018-11-23T10:01:53.416Z,37.63
2018-11-23T10:04:20.669Z,37.02
2018-11-23T10:06:48.319Z,37.87
2018-11-23T10:09:16.006Z,38.08
2018-11-23T10:11:43.817Z,38.13
2018-11-23T10:14:11.594Z,38.80
2018-11-23T10:16:39.464Z,38.68
2018-11-23T10:19:12.627Z,39.54
2018-11-23T10:24:08.712Z,39.34
2018-11-23T10:26:36.591Z,39.54
2018-11-23T10:29:04.718Z,40.44
2018-11-23T10:31:32.565Z,39.64
2018-11-23T10:34:00.227Z,39.24
2018-11-23T10:36:28.147Z,40.48
2018-11-23T10:38:55.771Z,40.37
2018-11-23T10:41:23.013Z,38.87
2018-11-23T10:43:50.825Z,38.49
2018-11-23T10:46:18.606Z,37.10
2018-11-23T10:48:46.519Z,37.08
2018-11-23T10:51:14.206Z,37.80
2018-11-23T10:53:41.859Z,38.49
2018-11-23T10:58:35.471Z,38.15
2018-11-23T11:01:08.891Z,37.48
2018-11-23T11:03:41.309Z,38.34
2018-11-23T11:06:14.794Z,38.62
2018-11-23T11:08:42.618Z,38.81
2018-11-23T11:11:13.564Z,41.68
2018-11-23T11:13:38.215Z,40.79
2018-11-23T11:16:05.997Z,40.47
2018-11-23T11:18:33.309Z,39.74
2018-11-23T11:21:01.081Z,37.86
2018-11-23T11:23:28.815Z,38.23
2018-11-23T11:25:56.675Z,38.00
2018-11-23T11:28:24.591Z,38.29
2018-11-23T11:30:52.455Z,37.16
2018-11-23T11:33:20.395Z,37.63
2018-11-23T11:35:48.071Z,36.83
2018-11-23T11:38:15.966Z,36.88
2018-11-23T11:40:43.794Z,37.65
2018-11-23T11:44:07.201Z,37.63
2018-11-23T11:46:34.846Z,37.32
2018-11-23T11:49:02.623Z,37.10
2018-11-23T11:51:30.415Z,36.58
2018-11-23T11:53:58.567Z,36.59
2018-11-23T11:56:26.201Z,35.69
2018-11-23T11:58:53.927Z,35.58
2018-11-23T12:01:22.485Z,35.58
2018-11-23T12:03:50.233Z,35.55
2018-11-23T12:06:17.765Z,36.55
2018-11-23T12:08:45.893Z,36.30
2018-11-23T12:11:13.635Z,36.62
2018-11-23T12:13:41.306Z,36.09
2018-11-23T12:16:08.578Z,36.19
2018-11-23T12:18:36.369Z,36.53
2018-11-23T12:21:04.215Z,36.52
2018-11-23T12:23:32.156Z,36.78
2018-11-23T12:25:59.916Z,36.30
2018-11-23T12:28:27.700Z,36.97
2018-11-23T12:30:55.594Z,35.69
2018-11-23T12:33:23.217Z,35.15
2018-11-23T12:35:50.775Z,35.63
2018-11-23T12:38:17.983Z,34.88
2018-11-23T12:40:45.919Z,35.36
2018-11-23T12:43:13.687Z,35.55
2018-11-23T12:45:41.751Z,35.73
2018-11-23T12:48:09.624Z,36.34
2018-11-23T12:50:37.609Z,35.88
2018-11-23T12:53:06.531Z,36.88
2018-11-23T12:55:33.727Z,37.98
2018-11-23T12:58:01.550Z,38.72
2018-11-23T13:00:29.571Z,39.51
2018-11-23T13:02:58.647Z,38.81
2018-11-23T13:05:27.212Z,39.29
2018-11-23T13:07:55.855Z,39.10
2018-11-23T13:10:24.462Z,39.14
2018-11-23T13:12:52.954Z,38.74
2018-11-23T13:15:22.855Z,38.63
2018-11-23T13:17:52.786Z,39.63
2018-11-23T13:20:21.919Z,39.73
2018-11-23T13:22:51.050Z,38.62
2018-11-23T13:25:20.935Z,38.20
2018-11-23T13:28:56.551Z,39.44
2018-11-23T13:31:24.376Z,39.39
2018-11-23T13:33:53.030Z,40.23
2018-11-23T13:36:21.065Z,40.52
2018-11-23T13:38:48.856Z,40.05
2018-11-23T13:41:16.895Z,37.65
2018-11-23T13:43:44.643Z,37.24
2018-11-23T13:46:12.328Z,37.03
2018-11-23T13:48:40.306Z,37.73
2018-11-23T13:51:08.009Z,38.53
2018-11-23T13:55:33.853Z,37.12
2018-11-23T13:58:01.963Z,37.14
2018-11-23T14:00:30.197Z,37.35
2018-11-23T14:02:58.184Z,37.30
2018-11-23T14:05:27.600Z,37.49
2018-11-23T14:07:57.003Z,38.06
2018-11-23T14:10:25.403Z,38.01
2018-11-23T14:12:53.557Z,37.11
2018-11-23T14:15:22.944Z,37.81
2018-11-23T14:17:51.006Z,37.32
2018-11-23T14:20:19.610Z,38.02
2018-11-23T14:22:47.883Z,37.11
2018-11-23T14:25:17.283Z,35.62
2018-11-23T14:27:45.382Z,35.63
2018-11-23T14:30:15.699Z,35.51
2018-11-23T14:32:43.751Z,35.17
2018-11-23T14:35:13.307Z,34.98
2018-11-23T14:37:41.440Z,35.70
2018-11-23T14:40:10.054Z,35.37
2018-11-23T14:42:38.594Z,36.80
2018-11-23T14:45:17.435Z,37.30
2018-11-23T14:47:45.454Z,37.31
2018-11-23T14:50:15.962Z,37.16
2018-11-23T14:52:44.809Z,36.74
2018-11-23T14:55:12.766Z,36.68
2018-11-23T14:57:41.561Z,37.10
2018-11-23T15:00:26.015Z,36.37
2018-11-23T15:02:54.518Z,35.71
2018-11-23T15:05:22.318Z,35.93
2018-11-23T15:07:50.607Z,35.83
2018-11-23T15:10:20.596Z,35.33
2018-11-23T15:12:50.607Z,36.20
2018-11-23T15:15:20.470Z,36.08
2018-11-23T15:17:49.628Z,36.34
2018-11-23T15:20:20.433Z,36.27
2018-11-23T15:22:51.323Z,36.30
2018-11-23T15:25:20.324Z,36.80
2018-11-23T15:27:48.564Z,36.92
2018-11-23T15:30:20.224Z,36.44
2018-11-23T15:32:48.724Z,37.40
2018-11-23T15:35:17.216Z,37.00
2018-11-23T15:37:45.667Z,36.99
2018-11-23T15:40:20.324Z,37.16
2018-11-23T15:42:49.810Z,36.40
2018-11-23T15:45:19.485Z,37.81
2018-11-23T15:47:47.789Z,36.61
2018-11-23T15:50:18.690Z,37.80
2018-11-23T15:52:47.643Z,37.58
2018-11-23T15:55:19.341Z,38.17
2018-11-23T15:57:48.549Z,38.92
2018-11-23T16:03:00.014Z,38.12
2018-11-23T16:05:28.006Z,39.24
2018-11-23T16:07:58.209Z,38.43
2018-11-23T16:10:28.303Z,38.51
2018-11-23T16:12:57.519Z,37.28
2018-11-23T16:15:26.503Z,37.36
2018-11-23T16:17:54.590Z,38.31
2018-11-23T16:20:25.301Z,37.65
2018-11-23T16:22:54.722Z,37.73
2018-11-23T16:25:25.755Z,37.68
2018-11-23T16:27:55.306Z,38.01
2018-11-23T16:30:24.236Z,39.03
2018-11-23T16:32:53.519Z,39.44
2018-11-23T16:35:26.603Z,39.25
2018-11-23T16:37:55.310Z,38.91
2018-11-23T16:40:24.429Z,37.73
2018-11-23T16:42:52.909Z,37.75
2018-11-23T16:45:22.983Z,37.81
2018-11-23T16:47:51.523Z,37.25
2018-11-23T16:50:19.306Z,37.00
2018-11-23T16:52:47.996Z,35.92
2018-11-23T16:55:16.826Z,36.72
2018-11-23T16:57:46.006Z,37.15
2018-11-23T17:00:17.495Z,37.49
2018-11-23T17:02:45.436Z,37.94
2018-11-23T17:05:14.470Z,38.13
2018-11-23T17:07:42.218Z,37.91
2018-11-23T17:10:12.303Z,38.63
2018-11-23T17:12:40.494Z,38.55
2018-11-23T17:15:10.540Z,38.15
2018-11-23T17:17:38.516Z,38.63
2018-11-23T17:20:10.875Z,37.96
2018-11-23T17:22:38.842Z,37.78
2018-11-23T17:25:08.378Z,37.64
2018-11-23T17:27:36.051Z,38.54
2018-11-23T17:30:04.585Z,39.01
2018-11-23T17:32:32.301Z,37.84
2018-11-23T17:34:59.993Z,38.00
2018-11-23T17:37:27.735Z,38.87
2018-11-23T17:39:55.581Z,38.94
2018-11-23T17:42:23.686Z,39.84
2018-11-23T17:44:51.672Z,40.19
2018-11-23T17:47:19.407Z,39.43
2018-11-23T17:49:47.203Z,40.12
2018-11-23T17:52:14.751Z,39.76
2018-11-23T17:54:42.701Z,39.70
2018-11-23T17:57:09.951Z,38.69
2018-11-23T17:59:42.777Z,38.53
2018-11-23T18:02:10.715Z,39.30
2018-11-23T18:04:38.535Z,38.36
2018-11-23T18:07:06.500Z,37.85
2018-11-23T18:09:36.178Z,37.82
2018-11-23T18:12:03.947Z,36.98
2018-11-23T18:14:31.763Z,37.26
2018-11-23T18:16:58.958Z,37.54
2018-11-23T18:19:26.663Z,38.38
2018-11-23T18:21:54.466Z,38.01
2018-11-23T18:24:22.197Z,38.66
2018-11-23T18:26:49.995Z,38.93
2018-11-23T18:29:17.800Z,39.06
2018-11-23T18:31:45.613Z,39.75
2018-11-23T18:34:13.543Z,39.26
2018-11-23T18:36:41.203Z,39.27
2018-11-23T18:39:09.187Z,38.98
2018-11-23T18:41:37.597Z,39.45
2018-11-23T18:44:05.822Z,39.53
2018-11-23T18:46:33.828Z,38.75
2018-11-23T18:49:01.717Z,38.02
2018-11-23T18:51:29.691Z,38.75
2018-11-23T18:53:56.896Z,38.03
2018-11-23T18:56:24.804Z,37.71
2018-11-23T18:58:53.532Z,37.54
2018-11-23T19:01:22.032Z,37.16
2018-11-23T19:03:50.858Z,38.73
2018-11-23T19:06:18.552Z,38.47
2018-11-23T19:08:47.457Z,38.88
2018-11-23T19:11:15.585Z,38.70
2018-11-23T19:13:44.063Z,38.23
2018-11-23T19:16:12.434Z,38.83
2018-11-23T19:18:40.631Z,38.50
2018-11-23T19:21:08.903Z,38.53
2018-11-23T19:23:37.816Z,38.75
2018-11-23T19:26:06.529Z,38.97
2018-11-23T19:28:35.039Z,38.74
2018-11-23T19:31:03.545Z,38.66
2018-11-23T19:33:31.853Z,38.14
2018-11-23T19:36:02.215Z,38.58
2018-11-23T19:38:30.711Z,38.67
2018-11-23T19:40:58.886Z,38.56
2018-11-23T19:43:27.292Z,38.82
2018-11-23T19:45:56.198Z,38.53
2018-11-23T19:48:24.906Z,38.76
2018-11-23T19:50:53.197Z,38.67
2018-11-23T19:53:21.539Z,39.06
2018-11-23T19:55:49.976Z,39.19
2018-11-23T19:58:18.624Z,38.88
2018-11-23T20:00:47.226Z,38.91
2018-11-23T20:03:15.339Z,39.64
2018-11-23T20:05:44.183Z,39.46
2018-11-23T20:08:12.583Z,39.36
2018-11-23T20:10:40.877Z,37.69
2018-11-23T20:13:09.459Z,38.28
2018-11-23T20:15:37.919Z,37.76
2018-11-23T20:18:07.376Z,38.17
2018-11-23T20:20:35.538Z,37.24
2018-11-23T20:23:04.049Z,37.83
2018-11-23T20:25:32.325Z,38.29
2018-11-23T20:28:00.576Z,37.89
2018-11-23T20:30:29.230Z,38.64
2018-11-23T20:32:57.540Z,38.85
2018-11-23T20:38:06.815Z,38.23
2018-11-23T20:40:34.018Z,38.85
2018-11-23T20:43:01.815Z,38.66
2018-11-23T20:45:29.696Z,38.32
2018-11-23T20:47:57.574Z,38.39
2018-11-23T20:50:25.314Z,37.61
2018-11-23T20:52:53.018Z,37.73
2018-11-23T20:55:21.728Z,37.78
2018-11-23T20:57:49.659Z,37.38
2018-11-23T21:00:19.315Z,37.41
2018-11-23T21:02:48.591Z,37.89
2018-11-23T21:05:17.786Z,38.33
2018-11-23T21:07:45.648Z,37.87
2018-11-23T21:10:20.297Z,38.79
2018-11-23T21:12:43.536Z,37.96
2018-11-23T21:15:31.580Z,37.88
2018-11-23T21:18:02.657Z,38.96
2018-11-23T21:20:30.554Z,38.14
2018-11-23T21:22:58.488Z,38.03
2018-11-23T21:25:26.182Z,37.63
2018-11-23T21:27:53.435Z,36.82
2018-11-23T21:30:22.603Z,37.22
2018-11-23T21:32:51.309Z,37.33
2018-11-23T21:35:19.156Z,36.70
2018-11-23T21:37:46.763Z,37.95
2018-11-23T21:40:15.418Z,37.67
2018-11-23T21:42:43.238Z,38.15
2018-11-23T21:45:11.595Z,37.70
2018-11-23T21:47:39.597Z,38.19
2018-11-23T21:50:11.583Z,38.02
2018-11-23T21:52:39.303Z,38.48
2018-11-23T21:55:09.502Z,38.62
2018-11-23T21:57:37.459Z,38.29
2018-11-23T22:00:07.593Z,38.58
2018-11-23T22:02:35.308Z,37.25
2018-11-23T22:05:02.543Z,37.21
2018-11-23T22:07:30.302Z,37.88
2018-11-23T22:09:57.997Z,37.39
2018-11-23T22:12:25.751Z,36.90
2018-11-23T22:14:53.663Z,36.88
2018-11-23T22:17:21.472Z,37.04
2018-11-23T22:19:49.307Z,38.28
2018-11-23T22:22:17.195Z,37.89
2018-11-23T22:24:45.187Z,38.03
2018-11-23T22:27:12.948Z,38.71
2018-11-23T22:29:40.650Z,38.59
2018-11-23T22:32:08.504Z,37.74
2018-11-23T22:34:36.307Z,38.38
2018-11-23T22:37:04.195Z,38.40
2018-11-23T22:39:31.302Z,39.03
2018-11-23T22:41:59.034Z,38.62
2018-11-23T22:44:26.438Z,38.23
2018-11-23T22:46:54.208Z,37.93
2018-11-23T22:49:22.194Z,37.80
2018-11-23T22:51:50.011Z,37.56
2018-11-23T22:54:18.003Z,37.61
2018-11-23T22:56:45.959Z,36.68
2018-11-23T22:59:13.185Z,36.89
2018-11-23T23:01:41.018Z,37.92
2018-11-23T23:04:08.752Z,37.68
2018-11-23T23:06:36.614Z,38.18
2018-11-23T23:09:08.066Z,38.48
2018-11-23T23:11:36.586Z,37.75
2018-11-23T23:14:04.639Z,38.08
2018-11-23T23:16:32.307Z,37.93
2018-11-23T23:19:00.012Z,37.92
2018-11-23T23:21:27.747Z,38.70
2018-11-23T23:23:55.567Z,37.90
2018-11-23T23:26:23.307Z,38.15
2018-11-23T23:28:51.030Z,37.41
2018-11-23T23:31:18.302Z,37.90
2018-11-23T23:33:46.009Z,36.75
2018-11-23T23:36:13.763Z,37.64
2018-11-23T23:38:41.579Z,37.27
2018-11-23T23:41:09.456Z,36.92
2018-11-23T23:43:37.558Z,37.15
2018-11-23T23:46:05.226Z,37.07
2018-11-23T23:48:33.041Z,37.55
2018-11-23T23:51:00.909Z,38.25
2018-11-23T23:53:28.639Z,38.44
2018-11-23T23:55:56.767Z,38.53
2018-11-23T23:58:24.190Z,37.88
